Time;durP1;ratioP1;P1;durP2;ratioP2;P2;SDS_P1;SDS_P2;PMS_P1;PMS_P2;Temp;Humidity;BMP_temperature;BMP_pressure;BME280_temperature;BME280_humidity;BME280_pressure;Samples;Min_cycle;Max_cycle;Signal;HPM_P1;HPM_P2
2021/08/11 00:02:07;;;;;;;6.53;5.83;;;15.80;99.90;;;17.02;60.20;94546.25;4991924;28;20233;-71
2021/08/11 00:04:36;;;;;;;6.97;5.63;;;15.80;99.90;;;16.91;60.29;94542.91;4998438;28;20194;-71
2021/08/11 00:07:02;;;;;;;7.47;5.50;;;15.80;99.90;;;17.05;60.29;94548.38;4990913;28;20210;-71
2021/08/11 00:09:28;;;;;;;6.57;5.20;;;15.90;99.90;;;17.22;60.35;94545.19;4997772;28;20200;-72
2021/08/11 00:11:54;;;;;;;6.90;5.20;;;16.00;99.90;;;17.26;60.51;94543.50;5006190;28;20198;-71
2021/08/11 00:14:20;;;;;;;7.83;5.33;;;16.00;99.90;;;17.22;60.71;94543.31;5011388;28;20200;-71
2021/08/11 00:16:46;;;;;;;6.40;5.10;;;15.30;99.90;;;17.19;60.58;94546.53;5005589;28;20252;-71
2021/08/11 00:19:14;;;;;;;6.83;4.90;;;16.20;99.90;;;17.28;60.72;94544.81;4989603;28;20243;-72
2021/08/11 00:21:40;;;;;;;5.40;4.90;;;16.30;99.90;;;17.32;60.85;94548.53;5006673;28;20204;-72
2021/08/11 00:24:06;;;;;;;5.63;5.13;;;15.20;99.90;;;17.38;60.86;94550.03;4998980;28;20222;-72
2021/08/11 00:26:32;;;;;;;9.43;5.10;;;16.60;99.90;;;17.43;61.02;94541.91;5003720;28;20199;-72
2021/08/11 00:29:00;;;;;;;6.27;5.70;;;16.20;99.90;;;17.47;61.21;94547.47;4999518;28;20237;-72
2021/08/11 00:31:26;;;;;;;5.93;5.20;;;16.30;99.90;;;17.42;61.06;94558.28;5006243;28;20768;-72
2021/08/11 00:33:54;;;;;;;5.20;4.70;;;16.20;99.90;;;17.37;61.21;94551.13;4989702;28;20259;-72
2021/08/11 00:36:20;;;;;;;6.63;5.37;;;16.20;99.90;;;17.44;61.64;94553.44;5006550;28;20268;-72
2021/08/11 00:38:46;;;;;;;6.57;5.10;;;16.20;99.90;;;17.34;61.55;94545.53;4990017;28;20909;-72
2021/08/11 00:41:15;;;;;;;7.20;5.67;;;16.20;99.90;;;17.37;61.70;94553.00;5021691;28;20554;-71
2021/08/11 00:43:42;;;;;;;6.60;5.67;;;16.20;99.90;;;17.33;61.68;94547.41;5001080;28;20286;-72
2021/08/11 00:46:09;;;;;;;6.27;5.67;;;16.10;99.90;;;17.22;61.68;94539.81;5005131;28;20198;-71
2021/08/11 00:48:37;;;;;;;7.73;5.23;;;16.10;99.90;;;17.14;61.97;94538.59;4985917;28;20548;-72
2021/08/11 00:51:03;;;;;;;6.77;4.73;;;16.00;99.90;;;17.12;61.94;94538.09;5007194;28;20219;-71
2021/08/11 00:53:33;;;;;;;8.97;5.07;;;16.00;99.90;;;17.10;62.04;94547.47;4986882;28;20642;-72
2021/08/11 00:56:02;;;;;;;7.00;5.23;;;15.90;99.90;;;17.07;62.15;94543.50;5006420;28;20296;-71
2021/08/11 00:58:29;;;;;;;5.73;5.23;;;16.00;99.90;;;17.05;62.15;94543.00;4986101;28;20689;-72
2021/08/11 01:00:59;;;;;;;5.83;5.33;;;16.00;99.90;;;16.99;62.12;94540.69;4989423;28;20200;-72
2021/08/11 01:03:27;;;;;;;7.10;5.20;;;15.80;99.90;;;16.97;62.40;94542.84;5018761;28;20652;-71
2021/08/11 01:05:58;;;;;;;7.03;5.30;;;15.80;99.90;;;17.07;62.49;94550.75;5004683;28;20274;-72
2021/08/11 01:08:24;;;;;;;8.10;5.87;;;15.80;99.90;;;17.00;62.64;94537.69;5008831;28;20201;-71
2021/08/11 01:10:51;;;;;;;6.30;5.70;;;15.90;99.90;;;16.96;62.82;94543.91;4988246;28;20248;-71
2021/08/11 01:13:20;;;;;;;5.90;5.30;;;15.10;99.90;;;16.95;62.65;94542.34;5002570;28;20197;-71
2021/08/11 01:15:47;;;;;;;6.70;5.47;;;15.80;99.90;;;16.99;62.99;94551.41;5001594;28;20232;-71
2021/08/11 01:18:20;;;;;;;5.60;5.10;;;15.80;99.90;;;17.05;62.85;94553.72;5006078;28;20287;-72
2021/08/11 01:21:06;;;;;;;8.37;5.50;;;15.80;99.90;;;17.03;62.93;94555.88;4984463;28;20195;-71
2021/08/11 01:23:55;;;;;;;5.63;5.03;;;15.80;99.90;;;17.05;63.14;94559.06;5013384;28;20216;-71
2021/08/11 01:27:02;;;;;;;7.47;5.37;;;15.80;99.90;;;16.96;63.01;94536.69;5003510;28;20861;-72
2021/08/11 01:30:02;;;;;;;8.07;5.47;;;15.70;99.90;;;16.96;63.01;94534.00;4993238;28;20257;-71
2021/08/11 01:32:53;;;;;;;5.70;5.03;;;15.70;99.90;;;16.82;63.48;94536.59;5002009;28;20213;-71
2021/08/11 01:35:25;;;;;;;10.40;6.20;;;15.60;99.90;;;16.77;63.45;94533.19;5001901;28;20521;-71
2021/08/11 01:37:54;;;;;;;7.70;6.17;;;15.50;99.90;;;16.74;63.61;94531.09;4991323;28;20261;-72
2021/08/11 01:40:30;;;;;;;6.63;5.67;;;15.50;99.90;;;16.67;63.91;94536.78;4989589;28;20248;-71
2021/08/11 01:43:01;;;;;;;6.53;5.80;;;15.40;99.90;;;16.65;63.71;94532.81;4987518;28;20198;-71
2021/08/11 01:45:40;;;;;;;6.53;5.40;;;15.40;99.90;;;16.61;63.94;94519.22;4989734;28;20198;-71
2021/08/11 01:48:11;;;;;;;5.83;5.33;;;15.40;99.90;;;16.55;64.03;94519.53;5002584;28;20220;-72
2021/08/11 01:50:40;;;;;;;6.23;5.63;;;15.40;99.90;;;16.50;64.13;94524.91;4989245;28;20222;-71
2021/08/11 01:53:16;;;;;;;7.47;5.60;;;15.30;99.90;;;16.41;64.03;94524.75;4990696;28;20698;-72
2021/08/11 01:55:43;;;;;;;6.10;5.60;;;15.20;99.90;;;16.33;64.10;94520.03;4985847;28;20680;-72
2021/08/11 01:58:10;;;;;;;6.50;5.80;;;15.10;99.90;;;16.32;64.27;94521.91;4991236;28;20217;-71
2021/08/11 02:00:38;;;;;;;10.10;6.30;;;15.30;99.90;;;16.21;64.27;94509.75;4988336;28;20267;-71
2021/08/11 02:03:09;;;;;;;7.07;5.77;;;15.10;99.90;;;16.27;64.19;94524.66;4997911;28;20189;-71
2021/08/11 02:05:36;;;;;;;6.17;5.57;;;15.60;99.90;;;16.30;64.36;94516.06;4987887;28;20213;-71
2021/08/11 02:08:09;;;;;;;7.60;6.00;;;14.60;99.90;;;16.32;64.35;94524.56;5005740;28;20634;-71
2021/08/11 02:10:37;;;;;;;6.47;5.87;;;16.10;99.90;;;16.28;64.94;94523.53;4989520;28;20195;-72
2021/08/11 02:13:04;;;;;;;6.03;5.13;;;15.30;99.90;;;16.34;64.58;94524.31;4986737;28;20630;-71
2021/08/11 02:15:30;;;;;;;7.33;6.13;;;15.10;99.90;;;16.34;65.01;94517.09;4989417;28;20282;-72
2021/08/11 02:17:57;;;;;;;7.43;5.90;;;15.10;99.90;;;16.34;64.92;94517.09;4987771;28;20361;-72
2021/08/11 02:20:23;;;;;;;7.83;6.03;;;15.00;99.90;;;16.35;64.66;94518.66;4986428;28;20189;-71
2021/08/11 02:22:49;;;;;;;6.30;5.70;;;15.00;99.90;;;16.38;64.80;94517.31;5006735;28;20222;-71
2021/08/11 02:25:15;;;;;;;6.53;5.93;;;15.10;99.90;;;16.37;65.05;94518.38;5008057;28;20557;-71
2021/08/11 02:28:14;;;;;;;6.93;5.20;;;15.10;99.90;;;16.43;65.14;94526.06;4993573;28;20218;-71
2021/08/11 02:30:53;;;;;;;8.40;6.43;;;15.10;99.90;;;16.39;65.14;94527.72;4985749;28;20221;-72
2021/08/11 02:33:24;;;;;;;7.33;5.90;;;15.10;99.90;;;16.40;65.32;94515.13;4989875;28;20732;-71
2021/08/11 02:36:09;;;;;;;6.13;5.53;;;15.20;99.90;;;16.41;65.27;94522.88;5002749;28;20281;-71
2021/08/11 02:38:40;;;;;;;7.93;5.77;;;15.10;99.90;;;16.43;65.28;94519.91;4996683;28;20229;-72
2021/08/11 02:41:23;;;;;;;5.97;5.03;;;15.20;99.90;;;16.38;65.45;94526.09;5004603;28;20235;-72
2021/08/11 02:44:14;;;;;;;6.80;5.80;;;15.10;99.90;;;16.40;65.48;94526.63;4988408;28;20206;-72
2021/08/11 02:46:44;;;;;;;5.80;5.03;;;15.70;99.90;;;16.37;65.51;94521.06;5005134;28;20254;-72
2021/08/11 02:49:27;;;;;;;7.77;5.87;;;15.20;99.90;;;16.26;65.59;94519.56;5003847;28;20284;-72
2021/08/11 02:52:01;;;;;;;5.27;4.77;;;15.10;99.90;;;16.23;65.72;94528.16;5018560;28;20278;-71
2021/08/11 02:54:31;;;;;;;6.17;5.40;;;15.00;99.90;;;16.22;65.84;94522.00;5000568;28;20198;-71
2021/08/11 02:57:03;;;;;;;7.00;5.10;;;15.00;99.90;;;16.24;66.15;94527.09;5004159;28;20202;-71
2021/08/11 02:59:29;;;;;;;8.50;5.57;;;15.00;99.90;;;16.27;65.77;94516.63;5005768;28;20228;-71
2021/08/11 03:01:56;;;;;;;6.40;5.80;;;15.10;99.90;;;16.38;65.67;94509.28;4984184;28;20244;-71
2021/08/11 03:04:24;;;;;;;6.73;5.60;;;15.10;99.90;;;16.35;66.03;94497.25;4997808;28;20745;-72
2021/08/11 03:06:50;;;;;;;5.90;5.00;;;15.10;99.90;;;16.25;65.96;94502.72;5006787;28;20207;-71
2021/08/11 03:09:21;;;;;;;8.07;5.00;;;15.10;99.90;;;16.27;66.09;94508.59;4987039;28;20198;-72
2021/08/11 03:11:47;;;;;;;6.37;5.77;;;15.10;99.90;;;16.33;66.37;94507.44;5006278;28;20642;-71
2021/08/11 03:14:16;;;;;;;7.40;5.37;;;15.10;99.90;;;16.27;66.18;94513.94;5004550;28;20200;-72
2021/08/11 03:16:42;;;;;;;7.00;5.70;;;15.10;99.90;;;16.23;66.16;94515.59;5007461;28;20231;-72
2021/08/11 03:19:09;;;;;;;7.73;5.13;;;15.10;99.90;;;16.24;66.48;94511.84;5007319;28;20223;-72
2021/08/11 03:21:39;;;;;;;6.17;5.57;;;15.00;99.90;;;16.17;66.34;94506.03;4994905;28;20207;-71
2021/08/11 03:24:10;;;;;;;7.03;5.73;;;15.00;99.90;;;16.17;66.62;94499.88;5005537;28;20206;-71
2021/08/11 03:26:36;;;;;;;6.20;5.60;;;15.00;99.90;;;16.13;66.68;94496.97;4994692;28;20197;-71
2021/08/11 03:29:02;;;;;;;6.83;5.50;;;15.00;99.90;;;16.16;66.52;94504.44;5009002;28;20198;-72
2021/08/11 03:31:30;;;;;;;6.40;5.77;;;14.90;99.90;;;16.09;66.22;94501.28;5009122;28;20246;-72
2021/08/11 03:33:58;;;;;;;6.47;5.23;;;14.90;99.90;;;16.08;66.88;94505.06;4990963;28;20193;-72
2021/08/11 03:36:27;;;;;;;6.47;4.87;;;14.90;99.90;;;16.01;66.88;94501.13;5004653;28;20201;-72
2021/08/11 03:38:54;;;;;;;8.07;5.87;;;14.80;99.90;;;15.98;66.11;94504.38;5004964;28;20252;-72
2021/08/11 03:41:22;;;;;;;9.00;6.40;;;14.80;99.90;;;15.93;66.81;94499.06;5007156;28;20704;-72
2021/08/11 03:43:48;;;;;;;8.53;6.37;;;13.70;99.90;;;15.79;66.84;94490.91;5001904;28;20194;-72
2021/08/11 03:46:15;;;;;;;7.00;5.90;;;15.30;99.90;;;15.73;67.02;94490.16;4992361;28;20225;-72
2021/08/11 03:48:41;;;;;;;5.80;5.23;;;14.50;99.90;;;15.64;66.93;94480.38;5001175;28;20728;-72
2021/08/11 03:51:07;;;;;;;7.80;6.23;;;14.60;99.90;;;15.55;67.07;94488.19;5006117;28;20227;-71
2021/08/11 03:53:33;;;;;;;7.83;6.50;;;14.90;99.90;;;15.48;67.12;94473.53;5007052;28;20209;-72
2021/08/11 03:56:01;;;;;;;7.27;6.20;;;14.40;99.90;;;15.47;67.18;94478.06;5010013;28;20247;-72
2021/08/11 03:58:27;;;;;;;8.50;6.23;;;14.30;99.90;;;15.43;67.05;94478.91;5006829;28;20267;-71
2021/08/11 04:00:55;;;;;;;8.47;6.40;;;14.40;99.90;;;15.39;67.33;94490.16;5008215;28;21735;-72
2021/08/11 04:03:21;;;;;;;7.93;6.37;;;14.30;99.90;;;15.36;67.54;94489.91;5008480;28;20273;-71
2021/08/11 04:05:47;;;;;;;7.73;6.00;;;14.30;99.90;;;15.36;67.44;94496.06;5008066;28;20215;-71
2021/08/11 04:08:16;;;;;;;8.63;5.67;;;14.20;99.90;;;15.33;67.61;94495.81;5003762;28;20196;-72
2021/08/11 04:10:48;;;;;;;8.30;6.50;;;14.20;99.90;;;15.27;67.45;94492.41;5009905;28;20205;-72
2021/08/11 04:13:18;;;;;;;7.03;6.20;;;14.20;99.90;;;15.29;67.61;94500.13;5002285;28;20200;-71
2021/08/11 04:15:45;;;;;;;7.90;6.40;;;14.10;99.90;;;15.26;67.65;94504.16;5007501;28;20203;-72
2021/08/11 04:18:12;;;;;;;9.10;6.30;;;14.10;99.90;;;15.21;67.77;94496.16;5002296;28;20235;-71
2021/08/11 04:20:39;;;;;;;9.03;7.00;;;14.00;99.90;;;15.22;67.87;94505.78;5008659;28;20228;-71
2021/08/11 04:23:09;;;;;;;8.07;6.37;;;14.00;99.90;;;15.16;68.01;94498.88;5003612;28;20273;-71
2021/08/11 04:25:40;;;;;;;7.00;6.30;;;13.90;99.90;;;15.23;67.83;94510.03;4989635;28;20305;-72
2021/08/11 04:28:08;;;;;;;8.27;6.67;;;14.00;99.90;;;15.29;68.15;94508.94;5011702;28;20641;-71
2021/08/11 04:30:35;;;;;;;8.33;7.47;;;14.00;99.90;;;15.32;67.97;94505.69;5009354;28;20231;-72
2021/08/11 04:33:02;;;;;;;8.63;7.50;;;14.10;99.90;;;15.32;68.39;94505.69;5005937;28;20251;-72
2021/08/11 04:35:28;;;;;;;11.23;7.43;;;14.10;99.90;;;15.39;68.31;94506.19;4991652;28;20229;-72
2021/08/11 04:37:55;;;;;;;10.03;7.73;;;14.10;99.90;;;15.49;68.23;94505.34;5007263;28;20271;-72
2021/08/11 04:40:21;;;;;;;10.60;7.70;;;14.20;99.90;;;15.60;68.45;94514.06;5006311;28;20198;-71
2021/08/11 04:42:47;;;;;;;8.37;7.13;;;14.30;99.90;;;15.62;68.46;94515.38;5001660;28;20229;-72
2021/08/11 04:45:16;;;;;;;7.90;7.10;;;14.30;99.90;;;15.68;68.65;94519.59;5006817;28;20214;-72
2021/08/11 04:47:42;;;;;;;8.57;6.60;;;14.40;99.90;;;15.71;68.47;94515.59;4998040;28;20190;-72
2021/08/11 04:50:08;;;;;;;10.53;7.10;;;14.40;99.90;;;15.72;68.47;94512.63;5008508;28;20259;-72
2021/08/11 04:52:34;;;;;;;8.77;7.87;;;14.40;99.90;;;15.81;68.82;94502.13;4966043;28;20206;-72
2021/08/11 04:55:03;;;;;;;10.67;7.30;;;14.50;99.90;;;15.83;68.77;94510.66;4992425;28;20212;-73
2021/08/11 04:57:28;;;;;;;7.30;6.37;;;14.50;99.90;;;15.84;68.84;94510.38;5004868;28;20200;-72
2021/08/11 04:59:54;;;;;;;10.97;6.73;;;14.60;99.90;;;15.93;68.72;94513.22;4988750;28;20240;-72
2021/08/11 05:02:20;;;;;;;7.77;6.33;;;14.60;99.90;;;15.93;68.48;94510.56;5006543;28;20221;-72
2021/08/11 05:04:46;;;;;;;8.47;6.50;;;14.70;99.90;;;15.98;68.99;94515.88;5005502;28;20233;-72
2021/08/11 05:07:12;;;;;;;9.00;6.27;;;14.70;99.90;;;16.04;69.02;94521.94;4998276;28;20544;-72
2021/08/11 05:09:37;;;;;;;9.53;6.87;;;14.70;99.90;;;16.13;69.05;94529.06;5003742;28;20586;-73
2021/08/11 05:12:04;;;;;;;6.50;5.80;;;14.80;99.90;;;16.25;68.98;94534.03;4991658;28;20808;-72
2021/08/11 05:14:32;;;;;;;7.30;6.53;;;14.90;99.90;;;16.40;69.05;94548.03;5006803;28;20190;-71
2021/08/11 05:16:58;;;;;;;10.43;5.97;;;15.10;99.90;;;16.57;69.24;94550.28;5007423;28;20669;-72
2021/08/11 05:19:24;;;;;;;7.70;6.00;;;15.20;99.90;;;16.86;69.00;94572.41;5006000;28;20206;-72
2021/08/11 05:21:52;;;;;;;5.70;5.17;;;15.40;99.90;;;17.22;69.08;94569.28;4998603;28;20202;-72
2021/08/11 05:24:20;;;;;;;7.77;5.23;;;15.80;99.90;;;17.54;69.13;94571.22;5005156;28;20199;-72
2021/08/11 05:26:46;;;;;;;5.30;4.87;;;16.10;99.90;;;17.68;69.31;94556.03;4984437;28;20204;-72
2021/08/11 05:29:20;;;;;;;6.57;5.30;;;16.40;99.90;;;17.62;69.13;94544.63;5002688;28;20286;-72
2021/08/11 05:31:46;;;;;;;7.17;4.93;;;16.30;99.90;;;17.68;69.25;94558.72;5019682;28;20859;-72
2021/08/11 05:34:13;;;;;;;5.50;4.53;;;16.60;99.90;;;17.85;69.02;94564.34;5003777;28;20707;-72
2021/08/11 05:36:39;;;;;;;8.77;5.17;;;16.80;99.90;;;18.01;69.30;94562.19;4996434;28;20229;-72
2021/08/11 05:39:05;;;;;;;5.83;5.23;;;16.80;99.90;;;18.24;69.31;94558.56;5002243;28;20250;-72
2021/08/11 05:41:33;;;;;;;8.10;5.50;;;17.00;99.90;;;18.49;69.21;94565.38;5000796;28;20190;-72
2021/08/11 05:43:59;;;;;;;7.90;5.60;;;17.60;99.90;;;18.61;69.34;94549.59;4987778;28;20222;-72
2021/08/11 05:46:25;;;;;;;11.27;5.40;;;17.40;99.90;;;18.50;69.47;94546.31;4988009;28;20205;-72
2021/08/11 05:48:51;;;;;;;6.10;4.80;;;17.40;99.90;;;18.63;69.22;94542.06;5000742;28;20198;-72
2021/08/11 05:51:16;;;;;;;5.37;4.77;;;17.50;99.90;;;18.76;69.18;94557.38;4998176;28;20262;-72
2021/08/11 05:53:42;;;;;;;5.47;4.97;;;17.60;99.90;;;18.82;69.29;94558.84;4998988;28;20209;-72
2021/08/11 05:56:09;;;;;;;5.93;4.90;;;17.70;99.90;;;18.99;69.31;94577.84;5000028;28;20273;-72
2021/08/11 05:58:35;;;;;;;5.73;4.90;;;17.90;99.90;;;19.24;69.19;94566.56;4966620;28;20209;-73
2021/08/11 06:01:01;;;;;;;5.67;5.10;;;18.10;99.90;;;19.41;69.27;94565.94;5001399;28;20240;-73
2021/08/11 06:03:27;;;;;;;5.30;4.80;;;18.20;99.90;;;19.62;69.27;94571.66;5002460;28;20214;-73
2021/08/11 06:05:53;;;;;;;9.50;4.87;;;18.40;99.90;;;19.79;69.15;94556.47;4997916;28;20685;-73
2021/08/11 06:08:19;;;;;;;7.67;4.80;;;18.60;99.90;;;20.04;69.06;94557.75;4998992;28;20626;-73
2021/08/11 06:10:44;;;;;;;7.20;4.90;;;18.90;99.90;;;20.22;69.00;94553.25;5012960;28;20248;-72
2021/08/11 06:13:11;;;;;;;5.37;4.77;;;19.10;99.90;;;20.54;68.97;94566.47;4998376;28;20201;-72
2021/08/11 06:15:37;;;;;;;5.80;4.40;;;19.40;99.90;;;21.97;69.03;94626.81;4983939;28;20304;-73
2021/08/11 06:18:02;;;;;;;4.20;3.80;;;20.50;99.90;;;23.61;68.67;94627.94;5000741;28;20217;-73
2021/08/11 06:20:33;;;;;;;13.57;5.43;;;22.20;99.90;;;25.75;68.48;94664.97;4986140;28;20205;-73
2021/08/11 06:22:59;;;;;;;4.27;3.87;;;24.10;99.90;;;26.83;68.07;94644.84;4998352;28;20197;-72
2021/08/11 06:25:27;;;;;;;4.20;3.80;;;25.60;99.90;;;27.66;67.82;94604.91;5004313;28;20887;-72
2021/08/11 06:27:53;;;;;;;4.27;3.83;;;26.90;99.90;;;26.88;67.89;94534.97;5005713;28;20201;-71
2021/08/11 06:30:19;;;;;;;4.50;3.60;;;26.90;99.90;;;25.85;67.33;94564.00;5002371;28;20292;-71
2021/08/11 06:32:45;;;;;;;6.37;4.47;;;26.20;99.90;;;25.25;67.29;94587.31;4999634;28;20236;-71
2021/08/11 06:35:12;;;;;;;5.00;4.03;;;25.60;99.90;;;26.10;67.15;94616.31;4988590;28;20197;-71
2021/08/11 06:37:49;;;;;;;5.20;4.20;;;25.90;99.90;;;27.40;66.35;94678.97;4983845;28;20251;-71
2021/08/11 06:40:19;;;;;;;4.63;4.07;;;27.00;99.90;;;29.20;66.59;94613.88;5002458;28;20597;-68
2021/08/11 06:42:46;;;;;;;4.83;3.57;;;28.90;99.90;;;30.31;65.86;94635.16;4980322;28;20186;-70
2021/08/11 06:45:15;;;;;;;5.07;3.63;;;30.10;99.90;;;31.35;65.02;94607.75;5003874;28;20193;-71
2021/08/11 06:47:42;;;;;;;5.50;3.87;;;31.40;99.90;;;31.83;65.22;94608.56;4990181;28;20212;-72
2021/08/11 06:50:09;;;;;;;6.13;4.00;;;32.20;99.90;;;32.41;64.84;94573.59;5008609;28;20268;-72
2021/08/11 06:52:36;;;;;;;5.17;3.77;;;33.10;99.90;;;33.08;63.91;94690.38;5013036;28;20212;-72
2021/08/11 06:55:09;;;;;;;6.43;4.78;;;33.60;99.90;;;34.29;62.84;94645.31;5008823;28;20204;-72
2021/08/11 06:57:35;;;;;;;5.43;4.93;;;34.80;99.90;;;33.81;62.63;94623.72;5019449;28;20193;-73
2021/08/11 07:00:02;;;;;;;4.53;4.07;;;34.80;98.20;;;33.89;62.76;94625.31;4990598;28;20191;-72
2021/08/11 07:02:28;;;;;;;8.90;4.20;;;34.80;97.80;;;33.10;62.37;94622.13;5003366;28;20201;-72
2021/08/11 07:04:54;;;;;;;4.78;4.38;;;34.30;96.10;;;34.22;61.16;94610.31;4989088;28;20200;-72
2021/08/11 07:07:19;;;;;;;5.15;4.20;;;35.10;95.00;;;35.74;60.68;94658.44;5003536;28;20200;-72
2021/08/11 07:09:45;;;;;;;5.50;4.30;;;36.30;93.40;;;35.72;60.03;94660.81;5006873;28;20610;-72
2021/08/11 07:12:11;;;;;;;8.40;4.07;;;36.70;91.90;;;36.11;59.81;94536.25;5007336;28;20728;-72
2021/08/11 07:14:37;;;;;;;3.70;3.35;;;37.10;89.30;;;36.20;58.88;94627.69;5006282;28;20203;-74
2021/08/11 07:17:05;;;;;;;4.32;3.00;;;37.40;84.70;;;36.43;58.34;94630.59;5003453;28;20201;-72
2021/08/11 07:19:31;;;;;;;5.40;3.22;;;37.80;83.00;;;36.43;58.09;94586.38;4992746;28;20224;-72
2021/08/11 07:21:57;;;;;;;5.03;3.40;;;38.10;80.40;;;36.16;57.29;94640.75;4992173;28;20193;-71
2021/08/11 07:24:23;;;;;;;5.70;3.33;;;38.20;79.70;;;37.04;56.77;94619.63;5006352;28;20623;-72
2021/08/11 07:26:50;;;;;;;3.45;2.92;;;39.00;78.00;;;37.82;55.94;94611.69;5004147;28;20284;-72
2021/08/11 07:29:16;;;;;;;10.98;3.05;;;39.70;75.80;;;38.37;55.57;94558.50;4989228;28;20185;-72
2021/08/11 07:31:41;;;;;;;6.80;3.28;;;40.30;71.90;;;38.61;54.43;94611.09;4987568;28;20213;-72
2021/08/11 07:34:11;;;;;;;4.32;2.88;;;40.80;71.60;;;39.03;53.88;94538.09;5008059;28;20216;-72
2021/08/11 07:36:37;;;;;;;4.43;3.00;;;41.50;68.70;;;38.55;53.84;94547.03;5007782;28;20661;-72
2021/08/11 07:39:03;;;;;;;4.05;2.65;;;41.20;68.60;;;38.32;52.94;94570.06;5006229;28;20220;-72
2021/08/11 07:41:30;;;;;;;3.47;3.17;;;41.00;67.40;;;38.72;52.47;94579.16;5006638;28;20196;-72
2021/08/11 07:43:59;;;;;;;5.90;3.20;;;41.30;67.50;;;38.71;51.65;94591.47;4993513;28;20193;-73
2021/08/11 07:46:26;;;;;;;3.40;3.00;;;41.60;65.90;;;39.71;51.10;94667.81;4980850;28;20665;-72
2021/08/11 07:48:56;;;;;;;3.35;3.03;;;42.40;64.30;;;39.99;50.60;94625.47;4990685;28;20188;-71
2021/08/11 07:51:22;;;;;;;3.30;3.00;;;42.80;63.20;;;39.77;50.20;94568.88;5007863;28;20566;-71
2021/08/11 07:53:49;;;;;;;3.75;3.03;;;42.90;61.80;;;39.99;49.54;94556.00;5005030;28;20197;-72
2021/08/11 07:56:14;;;;;;;3.60;3.08;;;43.10;61.10;;;39.97;48.94;94625.09;4999486;28;20200;-71
2021/08/11 07:58:41;;;;;;;4.57;3.10;;;43.00;60.60;;;40.55;48.45;94626.00;5006360;28;20209;-72
2021/08/11 08:01:06;;;;;;;5.70;3.00;;;43.50;59.30;;;40.63;47.87;94543.94;5007613;28;20208;-72
2021/08/11 08:03:35;;;;;;;4.22;2.70;;;43.90;58.20;;;41.74;47.35;94675.81;5009351;28;20208;-73
2021/08/11 08:06:01;;;;;;;3.40;3.10;;;44.60;57.40;;;41.83;46.48;94572.84;4990804;28;20211;-73
2021/08/11 08:08:27;;;;;;;4.82;3.17;;;45.10;56.30;;;42.02;45.91;94658.19;5004721;28;20220;-73
2021/08/11 08:10:53;;;;;;;3.55;3.17;;;45.30;55.70;;;41.75;45.63;94524.91;5004767;28;20541;-72
2021/08/11 08:13:20;;;;;;;3.30;3.00;;;45.50;55.10;;;41.49;45.03;94634.81;4987346;28;20272;-72
2021/08/11 08:15:52;;;;;;;5.70;3.10;;;45.20;55.40;;;42.02;44.51;94593.31;5004785;28;20205;-72
2021/08/11 08:18:22;;;;;;;3.65;3.15;;;45.50;55.30;;;42.04;44.18;94602.00;4986525;28;20236;-72
2021/08/11 08:20:53;;;;;;;4.22;3.33;;;45.50;55.20;;;42.43;43.28;94598.66;5002261;28;20250;-73
2021/08/11 08:23:21;;;;;;;3.97;3.20;;;46.00;54.80;;;42.69;42.98;94633.59;4989207;28;20189;-73
2021/08/11 08:25:47;;;;;;;3.80;2.90;;;46.20;54.40;;;43.05;42.85;94588.41;5005996;28;20323;-72
2021/08/11 08:28:14;;;;;;;3.58;3.28;;;46.70;53.30;;;42.45;42.33;94541.19;5003579;28;20205;-73
2021/08/11 08:30:42;;;;;;;3.90;3.50;;;46.30;53.00;;;41.39;41.91;94541.25;5008002;28;20688;-72
2021/08/11 08:33:09;;;;;;;4.07;3.30;;;45.50;54.20;;;41.55;41.35;94537.56;5006270;28;20215;-72
2021/08/11 08:35:37;;;;;;;4.32;3.10;;;45.50;54.20;;;41.81;41.04;94637.38;5011816;28;20691;-73
2021/08/11 08:38:04;;;;;;;3.38;3.08;;;45.60;55.40;;;41.83;41.00;94559.72;4990821;28;20208;-72
2021/08/11 08:40:33;;;;;;;3.50;3.20;;;45.60;53.90;;;42.18;40.11;94624.59;5013390;28;20203;-72
2021/08/11 08:43:03;;;;;;;5.68;3.30;;;45.90;54.00;;;42.68;40.04;94555.97;4992068;28;20189;-72
2021/08/11 08:45:29;;;;;;;6.47;3.53;;;46.70;53.40;;;42.99;39.37;94592.25;4995082;28;20204;-73
2021/08/11 08:47:57;;;;;;;4.22;3.35;;;47.10;52.40;;;42.99;39.58;94581.06;5003457;28;20197;-72
2021/08/11 08:50:26;;;;;;;5.40;3.70;;;47.30;53.30;;;43.64;38.86;94586.53;5000276;28;20695;-72
2021/08/11 08:52:55;;;;;;;22.73;5.68;;;47.80;52.60;;;43.84;38.10;94596.09;4990069;28;20573;-72
2021/08/11 08:55:21;;;;;;;6.93;3.78;;;48.10;52.10;;;43.78;38.07;94600.75;4985723;28;20203;-72
2021/08/11 08:57:47;;;;;;;5.47;3.80;;;48.00;52.60;;;43.61;37.62;94529.56;5001342;28;20193;-72
2021/08/11 09:00:14;;;;;;;7.20;3.45;;;48.10;51.90;;;43.98;37.34;94628.28;4988553;28;20204;-72
2021/08/11 09:02:41;;;;;;;5.40;3.80;;;48.20;51.90;;;43.81;36.55;94616.59;5002834;28;20813;-71
2021/08/11 09:05:10;;;;;;;5.22;3.83;;;48.10;52.10;;;44.19;36.47;94599.44;5007191;28;20197;-71
2021/08/11 09:07:45;;;;;;;4.35;3.67;;;48.50;51.40;;;43.13;36.63;94636.41;4985708;28;20197;-71
2021/08/11 09:10:22;;;;;;;5.38;3.60;;;47.60;51.70;;;44.03;36.08;94591.31;4988761;28;20692;-72
2021/08/11 09:12:51;;;;;;;4.55;3.60;;;48.50;51.40;;;44.28;35.83;94567.91;5005394;28;20259;-73
2021/08/11 09:15:49;;;;;;;6.57;3.95;;;49.00;50.50;;;43.92;35.76;94638.50;5011319;28;20809;-72
2021/08/11 09:18:23;;;;;;;4.15;3.38;;;48.60;50.70;;;44.22;34.90;94643.28;5004270;28;20870;-72
2021/08/11 09:21:10;;;;;;;4.88;3.80;;;49.10;50.00;;;43.89;35.01;94645.78;5008408;28;20560;-72
2021/08/11 09:23:43;;;;;;;4.40;3.58;;;48.70;50.10;;;44.69;34.77;94614.88;5008357;28;20555;-73
2021/08/11 09:26:12;;;;;;;7.03;3.58;;;49.10;49.80;;;44.20;34.38;94592.59;4988077;28;20185;-73
2021/08/11 09:28:41;;;;;;;5.38;3.47;;;48.80;49.40;;;44.64;33.74;94609.88;5008122;28;20216;-72
2021/08/11 09:31:37;;;;;;;4.97;3.30;;;49.40;49.10;;;45.91;33.26;94726.53;4988055;28;20316;-72
2021/08/11 09:34:07;;;;;;;5.18;3.20;;;50.50;49.50;;;46.22;33.38;94488.59;5002306;28;20380;-72
2021/08/11 09:36:52;;;;;;;5.60;3.50;;;51.10;46.90;;;45.60;32.99;94673.50;5018570;28;20245;-72
2021/08/11 09:39:21;;;;;;;5.80;3.20;;;50.40;48.20;;;44.66;32.67;94512.22;5028885;28;20285;-72
2021/08/11 09:42:06;;;;;;;3.60;3.30;;;49.60;47.80;;;45.03;32.31;94633.34;5020117;28;20838;-72
2021/08/11 09:44:33;;;;;;;4.43;3.20;;;49.80;48.00;;;45.80;32.00;94642.94;5011131;28;20286;-71
2021/08/11 09:47:18;;;;;;;4.70;3.30;;;50.50;48.00;;;46.29;31.79;94616.50;5003319;28;20292;-72
2021/08/11 09:50:07;;;;;;;3.50;3.20;;;51.10;46.40;;;45.87;31.66;94628.56;5020905;28;20243;-73
2021/08/11 09:52:53;;;;;;;4.40;2.90;;;50.60;46.70;;;45.73;31.20;94609.66;5023353;28;20197;-72
2021/08/11 09:55:19;;;;;;;6.32;3.58;;;50.40;47.30;;;45.50;30.80;94613.16;5005599;28;20723;-70
2021/08/11 09:57:49;;;;;;;3.75;3.30;;;50.10;47.90;;;45.51;30.70;94599.91;5023799;28;20201;-72
2021/08/11 10:00:16;;;;;;;4.13;3.00;;;50.20;47.00;;;45.29;30.48;94588.94;5020586;28;20542;-69
2021/08/11 10:02:44;;;;;;;5.43;3.08;;;50.00;47.60;;;46.00;30.43;94603.13;5022583;28;20656;-70
2021/08/11 10:05:36;;;;;;;5.13;2.95;;;50.90;47.40;;;45.87;30.26;94605.38;5025725;28;20648;-69
2021/08/11 10:08:04;;;;;;;3.17;2.88;;;51.00;45.60;;;45.65;30.11;94520.75;4991220;28;20216;-71
2021/08/11 10:10:50;;;;;;;2.88;2.67;;;50.60;45.80;;;45.46;29.55;94626.56;5003196;28;20208;-71
2021/08/11 10:13:20;;;;;;;3.50;3.20;;;50.00;45.90;;;45.39;29.38;94568.06;5002598;28;20209;-70
2021/08/11 10:15:49;;;;;;;4.10;3.00;;;49.90;46.60;;;45.06;29.15;94545.59;4986045;28;20770;-70
2021/08/11 10:18:28;;;;;;;3.90;2.95;;;49.40;46.50;;;45.62;29.03;94625.41;5006615;28;21568;-72
2021/08/11 10:21:01;;;;;;;4.60;3.30;;;50.00;46.90;;;46.27;29.10;94541.22;5005754;28;20712;-71
2021/08/11 10:23:27;;;;;;;5.05;3.10;;;50.90;46.10;;;45.80;28.41;94524.44;5013123;28;20252;-71
2021/08/11 10:25:54;;;;;;;6.72;3.22;;;50.00;45.70;;;45.52;28.41;94500.59;5010136;28;20243;-71
2021/08/11 10:28:24;;;;;;;4.80;3.10;;;49.80;45.60;;;45.08;28.36;94557.09;5012883;28;20240;-71